createdAt,value
2019-01-10T00:01:23.990Z,12.40
2019-01-10T00:03:54.121Z,12.35
2019-01-10T00:06:22.052Z,12.88
2019-01-10T00:08:50.332Z,13.90
2019-01-10T00:11:19.280Z,12.78
2019-01-10T00:13:47.583Z,12.58
2019-01-10T00:16:15.556Z,13.72
2019-01-10T00:18:43.681Z,12.15
2019-01-10T00:21:11.914Z,13.20
2019-01-10T00:23:40.184Z,12.90
2019-01-10T00:26:08.306Z,12.50
2019-01-10T00:28:36.811Z,12.80
2019-01-10T00:31:04.964Z,13.22
2019-01-10T00:33:33.082Z,15.23
2019-01-10T00:36:01.116Z,15.58
2019-01-10T00:38:29.411Z,13.95
2019-01-10T00:40:57.832Z,15.15
2019-01-10T00:43:26.168Z,14.15
2019-01-10T00:45:54.221Z,15.28
2019-01-10T00:48:22.316Z,15.13
2019-01-10T00:50:50.521Z,13.78
2019-01-10T00:53:18.823Z,15.70
2019-01-10T00:55:47.047Z,15.53
2019-01-10T00:58:15.399Z,16.17
2019-01-10T01:00:43.448Z,16.27
2019-01-10T01:03:11.759Z,15.72
2019-01-10T01:05:39.731Z,15.08
2019-01-10T01:08:08.121Z,15.75
2019-01-10T01:10:36.238Z,14.95
2019-01-10T01:13:04.560Z,16.10
2019-01-10T01:15:33.988Z,15.63
2019-01-10T01:18:02.239Z,16.15
2019-01-10T01:20:30.202Z,14.07
2019-01-10T01:22:58.181Z,16.17
2019-01-10T01:25:26.456Z,13.70
2019-01-10T01:27:54.532Z,15.38
2019-01-10T01:30:24.080Z,12.47
2019-01-10T01:32:52.572Z,15.00
2019-01-10T01:35:21.695Z,13.10
2019-01-10T01:37:49.975Z,13.53
2019-01-10T01:40:19.001Z,11.25
2019-01-10T01:42:47.384Z,12.00
2019-01-10T01:45:16.799Z,11.15
2019-01-10T01:47:45.027Z,11.35
2019-01-10T01:50:15.851Z,12.33
2019-01-10T01:52:43.808Z,9.63
2019-01-10T01:55:12.296Z,9.93
2019-01-10T01:57:40.344Z,10.78
2019-01-10T02:00:12.179Z,10.53
2019-01-10T02:02:40.092Z,11.12
2019-01-10T02:05:09.192Z,8.80
2019-01-10T02:07:37.153Z,8.50
2019-01-10T02:10:09.331Z,10.05
2019-01-10T02:12:37.735Z,10.40
2019-01-10T02:15:06.291Z,9.63
2019-01-10T02:17:35.410Z,10.43
2019-01-10T02:20:04.300Z,10.25
2019-01-10T02:22:32.780Z,10.35
2019-01-10T02:25:00.964Z,10.10
2019-01-10T02:27:29.099Z,9.13
2019-01-10T02:29:57.287Z,9.98
2019-01-10T02:32:25.424Z,9.58
2019-01-10T02:34:53.572Z,8.58
2019-01-10T02:37:21.807Z,8.98
2019-01-10T02:39:50.029Z,10.28
2019-01-10T02:42:18.247Z,10.05
2019-01-10T02:44:46.364Z,11.97
2019-01-10T02:47:14.643Z,10.00
2019-01-10T02:49:43.060Z,9.65
2019-01-10T02:52:11.231Z,9.20
2019-01-10T02:54:39.547Z,11.80
2019-01-10T02:57:07.782Z,9.60
2019-01-10T02:59:36.021Z,10.30
2019-01-10T03:02:04.616Z,9.17
2019-01-10T03:04:32.987Z,9.30
2019-01-10T03:07:01.312Z,12.23
2019-01-10T03:09:29.268Z,10.58
2019-01-10T03:11:57.400Z,9.70
2019-01-10T03:14:27.946Z,10.18
2019-01-10T03:16:57.297Z,10.72
2019-01-10T03:19:25.665Z,10.97
2019-01-10T03:21:53.815Z,11.17
2019-01-10T03:24:23.588Z,10.30
2019-01-10T03:26:51.804Z,10.10
2019-01-10T03:29:19.735Z,11.05
2019-01-10T03:31:47.990Z,9.70
2019-01-10T03:34:16.204Z,8.90
2019-01-10T03:36:44.400Z,8.53
2019-01-10T03:39:12.442Z,11.03
2019-01-10T03:41:40.853Z,9.25
2019-01-10T03:44:09.141Z,11.53
2019-01-10T03:46:38.634Z,10.55
2019-01-10T03:49:06.944Z,9.93
2019-01-10T03:51:35.363Z,10.50
2019-01-10T03:54:03.575Z,9.85
2019-01-10T03:56:32.535Z,9.75
2019-01-10T03:59:00.755Z,8.93
2019-01-10T04:01:28.873Z,9.17
2019-01-10T04:03:57.133Z,9.18
2019-01-10T04:06:25.462Z,7.63
2019-01-10T04:08:53.774Z,7.97
2019-01-10T04:11:22.011Z,9.40
2019-01-10T04:13:57.375Z,6.90
2019-01-10T04:16:20.190Z,7.70
2019-01-10T04:18:48.471Z,7.05
2019-01-10T04:21:17.634Z,9.53
2019-01-10T04:23:46.022Z,7.85
2019-01-10T04:26:14.347Z,8.38
2019-01-10T04:28:42.413Z,9.95
2019-01-10T04:31:10.724Z,10.68
2019-01-10T04:33:39.051Z,8.45
2019-01-10T04:36:07.788Z,7.45
2019-01-10T04:38:36.018Z,8.08
2019-01-10T04:41:04.491Z,8.18
2019-01-10T04:43:33.944Z,7.92
2019-01-10T04:46:06.508Z,8.48
2019-01-10T04:48:36.520Z,6.58
2019-01-10T04:51:07.897Z,6.10
2019-01-10T04:53:37.956Z,7.95
2019-01-10T04:56:06.204Z,7.70
2019-01-10T04:58:34.500Z,7.33
2019-01-10T05:01:02.844Z,8.08
2019-01-10T05:03:30.963Z,8.08
2019-01-10T05:05:59.094Z,7.33
2019-01-10T05:08:27.328Z,5.65
2019-01-10T05:10:55.816Z,7.25
2019-01-10T05:13:24.019Z,7.10
2019-01-10T05:15:52.220Z,7.12
2019-01-10T05:18:20.508Z,7.40
2019-01-10T05:20:48.734Z,7.67
2019-01-10T05:23:17.071Z,7.85
2019-01-10T05:25:45.141Z,6.15
2019-01-10T05:28:13.295Z,7.50
2019-01-10T05:30:41.209Z,7.42
2019-01-10T05:33:09.211Z,7.28
2019-01-10T05:35:37.426Z,6.83
2019-01-10T05:38:05.632Z,5.47
2019-01-10T05:40:33.717Z,5.10
2019-01-10T05:43:02.181Z,5.30
2019-01-10T05:45:30.469Z,6.55
2019-01-10T05:47:58.833Z,6.60
2019-01-10T05:50:26.830Z,3.55
2019-01-10T05:52:55.126Z,4.22
2019-01-10T05:55:24.012Z,5.60
2019-01-10T05:57:52.047Z,6.08
2019-01-10T06:00:22.653Z,3.80
2019-01-10T06:02:50.918Z,3.77
2019-01-10T06:05:19.525Z,3.00
2019-01-10T06:07:47.740Z,3.42
2019-01-10T06:10:21.268Z,5.28
2019-01-10T06:12:50.204Z,4.20
2019-01-10T06:15:18.332Z,5.40
2019-01-10T06:17:46.613Z,3.30
2019-01-10T06:20:16.320Z,4.53
2019-01-10T06:22:44.540Z,5.60
2019-01-10T06:25:13.079Z,4.40
2019-01-10T06:27:41.153Z,3.08
2019-01-10T06:30:11.500Z,3.00
2019-01-10T06:32:39.783Z,2.80
2019-01-10T06:35:07.977Z,5.10
2019-01-10T06:37:38.322Z,3.37
2019-01-10T06:40:08.649Z,3.02
2019-01-10T06:42:36.911Z,5.03
2019-01-10T06:45:06.262Z,5.28
2019-01-10T06:47:34.488Z,5.30
2019-01-10T06:50:03.913Z,3.47
2019-01-10T06:52:32.207Z,4.20
2019-01-10T06:55:00.441Z,3.27
2019-01-10T06:57:28.864Z,3.45
2019-01-10T06:59:57.230Z,3.10
2019-01-10T07:02:25.360Z,4.10
2019-01-10T07:04:53.463Z,4.60
2019-01-10T07:07:21.657Z,3.40
2019-01-10T07:09:49.875Z,4.03
2019-01-10T07:12:18.210Z,3.10
2019-01-10T07:14:53.582Z,4.12
2019-01-10T07:17:16.233Z,3.77
2019-01-10T07:19:44.772Z,3.05
2019-01-10T07:22:14.047Z,3.90
2019-01-10T07:24:51.808Z,3.15
2019-01-10T07:27:20.120Z,3.07
2019-01-10T07:29:54.100Z,3.67
2019-01-10T07:32:22.419Z,3.83
2019-01-10T07:34:52.074Z,3.77
2019-01-10T07:37:20.268Z,5.22
2019-01-10T07:39:48.582Z,3.58
2019-01-10T07:42:16.888Z,4.45
2019-01-10T07:44:44.982Z,5.87
2019-01-10T07:47:13.314Z,5.33
2019-01-10T07:49:41.242Z,4.57
2019-01-10T07:52:09.375Z,5.12
2019-01-10T07:54:37.636Z,5.42
2019-01-10T07:57:05.752Z,6.12
2019-01-10T07:59:33.979Z,4.30
2019-01-10T08:02:02.342Z,5.50
2019-01-10T08:04:30.592Z,6.33
2019-01-10T08:06:58.583Z,8.07
2019-01-10T08:09:26.617Z,6.60
2019-01-10T08:12:00.588Z,8.23
2019-01-10T08:14:26.652Z,6.83
2019-01-10T08:16:54.960Z,8.20
2019-01-10T08:19:23.216Z,9.60
2019-01-10T08:21:51.416Z,7.78
2019-01-10T08:24:19.581Z,7.97
2019-01-10T08:26:47.731Z,12.07
2019-01-10T08:29:16.039Z,12.23
2019-01-10T08:31:44.194Z,9.15
2019-01-10T08:34:12.407Z,10.00
2019-01-10T08:37:01.809Z,8.00
2019-01-10T08:39:44.256Z,9.68
2019-01-10T08:42:30.946Z,8.75
2019-01-10T08:44:59.885Z,8.98
2019-01-10T08:47:28.012Z,7.80
2019-01-10T08:49:56.226Z,8.60
2019-01-10T08:52:24.349Z,9.88
2019-01-10T08:54:52.556Z,11.55
2019-01-10T08:57:23.138Z,12.13
2019-01-10T08:59:52.511Z,9.58
2019-01-10T09:02:20.869Z,8.57
2019-01-10T09:04:49.149Z,8.95
2019-01-10T09:07:17.399Z,11.28
2019-01-10T09:09:45.583Z,9.95
2019-01-10T09:12:13.669Z,6.85
2019-01-10T09:14:41.604Z,9.85
2019-01-10T09:17:09.890Z,6.03
2019-01-10T09:19:38.080Z,8.98
2019-01-10T09:22:07.356Z,7.80
2019-01-10T09:24:35.707Z,10.23
2019-01-10T09:27:04.004Z,7.12
2019-01-10T09:29:33.140Z,7.15
2019-01-10T09:32:01.220Z,7.95
2019-01-10T09:34:30.488Z,9.58
2019-01-10T09:36:58.762Z,9.53
2019-01-10T09:39:27.066Z,7.03
2019-01-10T09:41:55.362Z,6.42
2019-01-10T09:44:23.642Z,5.17
2019-01-10T09:46:51.824Z,8.50
2019-01-10T09:49:20.043Z,8.70
2019-01-10T09:51:48.525Z,9.83
2019-01-10T09:54:16.689Z,7.58
2019-01-10T09:56:44.960Z,7.30
2019-01-10T09:59:13.467Z,7.00
2019-01-10T10:01:41.885Z,6.72
2019-01-10T10:04:10.229Z,5.80
2019-01-10T10:06:38.281Z,6.37
2019-01-10T10:09:07.950Z,5.72
2019-01-10T10:11:36.113Z,6.40
2019-01-10T10:14:04.852Z,6.20
2019-01-10T10:16:33.092Z,5.40
2019-01-10T10:19:01.217Z,5.28
2019-01-10T10:21:29.467Z,5.40
2019-01-10T10:23:58.844Z,7.75
2019-01-10T10:26:27.052Z,5.83
2019-01-10T10:28:55.212Z,5.12
2019-01-10T10:31:23.507Z,5.62
2019-01-10T10:33:51.447Z,5.50
2019-01-10T10:36:19.735Z,6.40
2019-01-10T10:38:47.906Z,6.80
2019-01-10T10:41:15.984Z,5.75
2019-01-10T10:43:44.239Z,7.05
2019-01-10T10:46:12.361Z,12.63
2019-01-10T10:48:41.407Z,6.78
2019-01-10T10:51:09.729Z,6.50
2019-01-10T10:53:37.620Z,6.37
2019-01-10T10:56:06.784Z,7.25
2019-01-10T10:58:34.798Z,5.30
2019-01-10T11:01:03.053Z,4.22
2019-01-10T11:03:31.241Z,6.40
2019-01-10T11:05:59.152Z,5.37
2019-01-10T11:08:27.222Z,4.37
2019-01-10T11:10:55.382Z,6.35
2019-01-10T11:13:23.479Z,8.00
2019-01-10T11:15:51.711Z,3.70
2019-01-10T11:18:19.915Z,4.03
2019-01-10T11:20:48.148Z,6.40
2019-01-10T11:23:16.388Z,6.40
2019-01-10T11:25:44.471Z,5.40
2019-01-10T11:28:12.696Z,4.15
2019-01-10T11:30:40.913Z,5.60
2019-01-10T11:33:09.144Z,6.10
2019-01-10T11:35:37.220Z,7.22
2019-01-10T11:38:05.361Z,5.78
2019-01-10T11:40:33.699Z,6.15
2019-01-10T11:43:01.718Z,4.00
2019-01-10T11:45:29.918Z,4.20
2019-01-10T11:47:58.068Z,4.90
2019-01-10T11:50:26.467Z,5.25
2019-01-10T11:52:54.539Z,5.33
2019-01-10T11:55:22.753Z,6.70
2019-01-10T11:57:52.836Z,5.22
2019-01-10T12:00:26.602Z,4.90
2019-01-10T12:02:54.810Z,4.55
2019-01-10T12:05:22.723Z,6.50
2019-01-10T12:07:51.133Z,4.10
2019-01-10T12:10:19.614Z,2.70
2019-01-10T12:12:47.597Z,5.08
2019-01-10T12:15:16.018Z,5.83
2019-01-10T12:17:44.691Z,2.50
2019-01-10T12:20:13.316Z,3.08
2019-01-10T12:22:41.640Z,3.10
2019-01-10T12:25:11.192Z,3.98
2019-01-10T12:27:39.316Z,5.87
2019-01-10T12:30:12.212Z,3.80
2019-01-10T12:32:40.486Z,2.98
2019-01-10T12:35:08.855Z,3.72
2019-01-10T12:37:37.125Z,3.00
2019-01-10T12:40:06.209Z,3.47
2019-01-10T12:42:34.388Z,3.65
2019-01-10T12:45:02.851Z,2.95
2019-01-10T12:47:45.873Z,3.98
2019-01-10T12:50:17.153Z,4.30
2019-01-10T12:52:45.277Z,5.17
2019-01-10T12:55:13.506Z,3.57
2019-01-10T12:57:41.656Z,5.00
2019-01-10T13:00:11.995Z,3.50
2019-01-10T13:02:40.071Z,3.92
2019-01-10T13:05:08.181Z,4.87
2019-01-10T13:07:36.511Z,3.65
2019-01-10T13:10:06.386Z,4.07
2019-01-10T13:12:34.594Z,3.45
2019-01-10T13:15:03.071Z,3.42
2019-01-10T13:17:31.096Z,3.45
2019-01-10T13:19:59.221Z,4.05
2019-01-10T13:22:27.408Z,4.37
2019-01-10T13:24:55.676Z,3.17
2019-01-10T13:27:23.843Z,2.98
2019-01-10T13:29:52.127Z,3.98
2019-01-10T13:32:20.310Z,3.87
2019-01-10T13:34:48.620Z,3.42
2019-01-10T13:37:39.060Z,3.52
2019-01-10T13:40:10.448Z,3.37
2019-01-10T13:42:52.384Z,3.45
2019-01-10T13:45:28.513Z,3.35
2019-01-10T13:48:57.302Z,4.40
2019-01-10T13:50:40.501Z,2.80
2019-01-10T13:53:23.618Z,3.08
2019-01-10T13:56:08.576Z,2.87
2019-01-10T13:58:45.728Z,4.55
2019-01-10T14:01:27.292Z,3.40
2019-01-10T14:07:01.823Z,2.70
2019-01-10T14:09:36.637Z,2.45
2019-01-10T14:12:04.948Z,2.83
2019-01-10T14:14:45.459Z,2.80
2019-01-10T14:17:25.022Z,3.80
2019-01-10T14:19:53.380Z,3.30
2019-01-10T14:22:31.613Z,2.80
2019-01-10T14:25:05.500Z,2.67
2019-01-10T14:27:34.665Z,5.47
2019-01-10T14:30:40.431Z,2.87
2019-01-10T14:33:10.912Z,3.52
2019-01-10T14:35:39.186Z,3.67
2019-01-10T14:38:07.408Z,3.30
2019-01-10T14:40:35.612Z,4.28
2019-01-10T14:43:04.227Z,3.40
2019-01-10T14:45:33.651Z,3.02
2019-01-10T14:48:02.203Z,3.37
2019-01-10T14:50:30.312Z,3.83
2019-01-10T14:52:58.399Z,3.37
2019-01-10T14:55:26.463Z,3.80
2019-01-10T14:57:54.777Z,3.00
2019-01-10T15:00:25.991Z,2.90
2019-01-10T15:02:54.117Z,3.15
2019-01-10T15:05:22.456Z,4.07
2019-01-10T15:07:51.099Z,3.47
2019-01-10T15:10:19.522Z,3.02
2019-01-10T15:12:49.060Z,3.10
2019-01-10T15:15:19.348Z,3.52
2019-01-10T15:17:47.700Z,3.50
2019-01-10T15:20:26.061Z,3.35
2019-01-10T15:22:54.514Z,3.50
2019-01-10T15:25:22.812Z,3.98
2019-01-10T15:27:52.244Z,3.80
2019-01-10T15:30:22.429Z,4.92
2019-01-10T15:32:50.690Z,4.20
2019-01-10T15:35:20.786Z,4.08
2019-01-10T15:37:49.407Z,3.85
2019-01-10T15:40:19.751Z,3.37
2019-01-10T15:42:48.179Z,2.92
2019-01-10T15:45:17.348Z,4.40
2019-01-10T15:47:45.879Z,4.40
2019-01-10T15:50:17.340Z,5.08
2019-01-10T15:52:45.880Z,4.90
2019-01-10T15:55:17.962Z,5.33
2019-01-10T15:57:46.394Z,4.10
2019-01-10T16:00:16.594Z,4.50
2019-01-10T16:02:44.885Z,4.70
2019-01-10T16:05:13.773Z,5.60
2019-01-10T16:07:41.852Z,5.43
2019-01-10T16:10:11.284Z,4.90
2019-01-10T16:12:39.536Z,4.03
2019-01-10T16:15:09.536Z,4.65
2019-01-10T16:17:37.556Z,4.20
2019-01-10T16:20:06.111Z,4.70
2019-01-10T16:22:34.415Z,4.45
2019-01-10T16:25:02.360Z,6.08
2019-01-10T16:27:30.552Z,4.15
2019-01-10T16:30:00.346Z,4.90
2019-01-10T16:32:29.905Z,4.15
2019-01-10T16:34:58.589Z,4.10
2019-01-10T16:37:26.781Z,4.33
2019-01-10T16:39:56.215Z,4.70
2019-01-10T16:42:24.388Z,5.20
2019-01-10T16:44:52.486Z,3.50
2019-01-10T16:47:20.881Z,3.08
2019-01-10T16:49:50.932Z,3.47
2019-01-10T16:52:19.100Z,3.40
2019-01-10T16:54:47.437Z,4.20
2019-01-10T16:57:15.563Z,3.72
2019-01-10T16:59:43.713Z,4.42
2019-01-10T17:02:11.814Z,3.80
2019-01-10T17:04:40.019Z,4.30
2019-01-10T17:07:08.076Z,4.70
2019-01-10T17:09:36.284Z,4.20
2019-01-10T17:12:04.639Z,3.70
2019-01-10T17:14:32.619Z,3.27
2019-01-10T17:17:00.732Z,3.65
2019-01-10T17:19:28.848Z,3.87
2019-01-10T17:21:57.125Z,4.13
2019-01-10T17:24:25.607Z,4.75
2019-01-10T17:26:53.803Z,3.95
2019-01-10T17:29:22.161Z,3.40
2019-01-10T17:31:50.173Z,3.60
2019-01-10T17:34:18.260Z,4.97
2019-01-10T17:36:46.400Z,3.77
2019-01-10T17:39:14.665Z,3.77
2019-01-10T17:41:42.856Z,4.55
2019-01-10T17:44:11.099Z,4.37
2019-01-10T17:46:39.232Z,4.47
2019-01-10T17:49:07.360Z,4.50
2019-01-10T17:51:35.574Z,4.05
2019-01-10T17:54:03.904Z,3.70
2019-01-10T17:56:32.692Z,5.08
2019-01-10T17:59:01.121Z,3.70
2019-01-10T18:01:29.451Z,2.80
2019-01-10T18:03:57.367Z,4.40
2019-01-10T18:06:25.502Z,4.58
2019-01-10T18:08:53.957Z,5.03
2019-01-10T18:11:22.127Z,4.53
2019-01-10T18:13:50.172Z,7.35
2019-01-10T18:16:18.278Z,4.97
2019-01-10T18:18:46.986Z,4.17
2019-01-10T18:21:15.448Z,3.95
2019-01-10T18:23:44.415Z,3.72
2019-01-10T18:26:13.046Z,3.35
2019-01-10T18:28:41.372Z,3.87
2019-01-10T18:31:11.135Z,4.30
2019-01-10T18:33:39.893Z,4.45
2019-01-10T18:36:08.505Z,3.75
2019-01-10T18:38:36.868Z,3.72
2019-01-10T18:41:05.541Z,3.85
2019-01-10T18:43:35.182Z,4.28
2019-01-10T18:46:03.957Z,3.30
2019-01-10T18:48:32.821Z,3.47
2019-01-10T18:51:01.318Z,4.20
2019-01-10T18:53:30.081Z,3.50
2019-01-10T18:55:58.828Z,4.50
2019-01-10T18:58:27.095Z,4.20
2019-01-10T19:00:57.117Z,5.25
2019-01-10T19:03:25.149Z,4.10
2019-01-10T19:05:53.721Z,4.90
2019-01-10T19:08:22.533Z,5.17
2019-01-10T19:10:51.062Z,5.22
2019-01-10T19:13:19.352Z,4.60
2019-01-10T19:15:47.835Z,4.85
2019-01-10T19:18:16.235Z,4.55
2019-01-10T19:20:44.890Z,4.45
2019-01-10T19:23:13.382Z,5.17
2019-01-10T19:25:41.876Z,5.20
2019-01-10T19:28:10.329Z,5.08
2019-01-10T19:30:40.350Z,5.83
2019-01-10T19:33:09.186Z,5.20
2019-01-10T19:35:37.570Z,6.30
2019-01-10T19:38:06.042Z,5.85
2019-01-10T19:40:34.709Z,5.22
2019-01-10T19:43:02.969Z,6.10
2019-01-10T19:45:30.998Z,6.25
2019-01-10T19:47:59.213Z,6.37
2019-01-10T19:50:28.069Z,7.20
2019-01-10T19:52:56.828Z,6.35
2019-01-10T19:55:25.148Z,7.60
2019-01-10T19:57:53.733Z,6.72
2019-01-10T20:00:40.080Z,6.55
2019-01-10T20:03:09.924Z,7.40
2019-01-10T20:05:38.252Z,8.05
2019-01-10T20:08:07.009Z,6.87
2019-01-10T20:10:35.457Z,7.65
2019-01-10T20:13:04.151Z,7.72
2019-01-10T20:15:34.952Z,6.65
2019-01-10T20:18:03.711Z,7.97
2019-01-10T20:20:35.591Z,7.22
2019-01-10T20:23:06.485Z,8.08
2019-01-10T20:25:35.078Z,7.12
2019-01-10T20:28:03.866Z,7.95
2019-01-10T20:30:32.084Z,7.85
2019-01-10T20:33:00.090Z,7.30
2019-01-10T20:35:28.420Z,7.50
2019-01-10T20:37:57.807Z,7.50
2019-01-10T20:40:26.047Z,6.83
2019-01-10T20:42:54.065Z,7.15
2019-01-10T20:45:23.868Z,8.35
2019-01-10T20:47:53.124Z,7.85
2019-01-10T20:50:21.445Z,6.87
2019-01-10T20:52:49.624Z,8.63
2019-01-10T20:55:17.853Z,8.05
2019-01-10T20:57:52.528Z,6.92
2019-01-10T21:00:21.357Z,6.22
2019-01-10T21:02:50.107Z,6.45
2019-01-10T21:05:18.375Z,7.95
2019-01-10T21:07:49.179Z,6.65
2019-01-10T21:10:17.555Z,5.40
2019-01-10T21:12:46.272Z,6.12
2019-01-10T21:15:16.908Z,5.45
2019-01-10T21:17:46.332Z,5.20
2019-01-10T21:20:16.164Z,6.05
2019-01-10T21:22:44.481Z,6.85
2019-01-10T21:25:12.660Z,6.30
2019-01-10T21:27:40.887Z,6.47
2019-01-10T21:30:11.420Z,6.58
2019-01-10T21:32:41.078Z,5.40
2019-01-10T21:35:09.565Z,5.97
2019-01-10T21:37:37.551Z,5.78
2019-01-10T21:40:07.660Z,6.17
2019-01-10T21:42:35.815Z,6.55
2019-01-10T21:45:05.321Z,5.95
2019-01-10T21:47:34.885Z,7.10
2019-01-10T21:50:03.458Z,6.10
2019-01-10T21:52:31.848Z,5.70
2019-01-10T21:55:00.229Z,6.37
2019-01-10T21:57:30.476Z,5.72
2019-01-10T21:59:58.473Z,6.42
2019-01-10T22:02:26.599Z,5.97
2019-01-10T22:04:54.831Z,6.50
2019-01-10T22:07:23.076Z,6.95
2019-01-10T22:09:51.305Z,6.95
2019-01-10T22:12:19.438Z,6.83
2019-01-10T22:14:47.909Z,8.15
2019-01-10T22:17:15.951Z,7.10
2019-01-10T22:19:44.156Z,6.35
2019-01-10T22:22:12.244Z,6.70
2019-01-10T22:24:40.449Z,7.55
2019-01-10T22:27:08.523Z,6.75
2019-01-10T22:29:36.859Z,5.97
2019-01-10T22:32:04.996Z,6.60
2019-01-10T22:34:33.080Z,6.33
2019-01-10T22:37:01.220Z,7.03
2019-01-10T22:39:29.538Z,7.83
2019-01-10T22:41:57.763Z,10.78
2019-01-10T22:44:26.109Z,6.12
2019-01-10T22:46:54.187Z,6.35
2019-01-10T22:49:22.284Z,5.97
2019-01-10T22:51:50.403Z,6.33
2019-01-10T22:54:18.499Z,6.72
2019-01-10T22:56:46.548Z,6.00
2019-01-10T22:59:14.798Z,7.05
2019-01-10T23:01:48.423Z,6.35
2019-01-10T23:04:26.116Z,6.60
2019-01-10T23:06:54.260Z,7.60
2019-01-10T23:09:22.279Z,8.20
2019-01-10T23:11:51.833Z,6.87
2019-01-10T23:14:19.934Z,7.25
2019-01-10T23:16:47.969Z,6.78
2019-01-10T23:19:16.193Z,7.10
2019-01-10T23:21:44.303Z,6.55
2019-01-10T23:24:14.179Z,6.90
2019-01-10T23:26:53.410Z,5.90
2019-01-10T23:29:21.878Z,7.53
2019-01-10T23:31:50.991Z,6.85
2019-01-10T23:34:19.019Z,7.03
2019-01-10T23:36:51.316Z,6.87
2019-01-10T23:39:20.612Z,7.05
2019-01-10T23:41:49.361Z,6.78
2019-01-10T23:44:17.772Z,7.15
2019-01-10T23:46:45.949Z,6.37
2019-01-10T23:49:14.195Z,6.85
2019-01-10T23:51:42.287Z,7.95
2019-01-10T23:54:10.615Z,7.15
2019-01-10T23:56:38.955Z,7.05
2019-01-10T23:59:07.308Z,7.65
